< Typhoon 202010 2020 Season Typhoon 202012 >
Typhoon 202011 (NOUL)
General InformationTrack Information on Google MapsDetailed Wind InformationForecast History on Google MapsAccess Analytics MapList of All Images || NewsDisaster Info.WeblogTrackbackTyphoon FrontTwiphoonTyphoon Now!Typhoon ImaginationJMA Disaster Info. XMLResourceGoogle EarthGE AnimationAtom FeedGeoJSON
Detalied Best Track (Time Zone = UTC)
Year Month Day Hour Lat. Long. Pressure (hPa) Wind (kt) Class Image Chart
2020 9 15 06 12.3 120.4 1002 30 2 Image Chart
2020 9 15 09 12.7 119.4 1002 30 2 Image Chart
2020 9 15 12 12.7 119.1 1002 30 2 Image Chart
2020 9 15 15 13.0 118.7 1002 30 2 Image Chart
2020 9 15 18 13.0 118.5 996 40 3 Image Chart
2020 9 16 06 13.2 116.9 992 45 3 Image Chart
2020 9 16 09 13.3 116.3 992 45 3 Image Chart
2020 9 16 12 13.5 115.5 990 50 3 Image Chart
2020 9 16 15 13.6 115.1 990 50 3 Image Chart
2020 9 16 18 13.7 114.2 990 50 3 Image Chart
2020 9 16 21 14.0 114.0 990 50 3 Image Chart
2020 9 17 00 14.4 114.0 990 50 3 Image Chart
2020 9 17 03 14.8 113.8 990 50 3 Image Chart
2020 9 17 06 15.3 113.1 990 50 3 Image Chart
2020 9 17 09 15.8 112.5 990 50 3 Image Chart
2020 9 17 12 15.9 111.8 990 50 3 Image Chart
2020 9 17 15 15.9 110.9 990 50 3 Image Chart
2020 9 17 18 15.9 110.3 992 45 3 Image Chart
2020 9 17 21 15.9 109.6 998 35 3 Image Chart
2020 9 18 00 16.4 108.1 994 35 3 Image Chart
2020 9 18 03 16.4 107.0 994 35 3 Image Chart
2020 9 18 06 16.3 104.9 994 40 3 Image Chart
2020 9 18 09 16.2 104.3 994 40 3 Image Chart
2020 9 18 12 16.2 103.9 994 35 3 Image Chart
2020 9 18 15 16.1 103.4 996 35 3 Image Chart
2020 9 18 18 16.0 103.0 998 0 2 Image Chart
Japan Meteorological Agency Best Track Data | Correction Date : 2020-09-18
< Typhoon 202010 2020 Season Typhoon 202012 >

Help